Terminal Aerodrome Forecast
Issued by NWS Upton, NY

Home | Current Version | Previous Version | Text Only | Print | Product List | Glossary On
Versions: 1 2 3 4 5 6 7 8 9 10 11 12 13 14 15 16 17 18 19 20 21 22 23 24 25 26 27
000
FTUS41 KOKX 201700
TAFISP
TAF
KISP 201734Z 2018/2118 21010KT P6SM SCT150 BKN200
     FM210000 20006KT P6SM FEW035 BKN150
     FM210500 20005KT P6SM -RA SCT025 BKN035 BKN120
     FM211200 14004KT P6SM SCT040 BKN100=

USA.gov is the U.S. government's official web portal to all federal, state and local government web resources and services.